createdAt,value
2024-05-09T00:00:35.852Z,87.33
2024-05-09T00:03:07.885Z,87.17
2024-05-09T00:05:35.671Z,87.67
2024-05-09T00:08:02.596Z,87.66
2024-05-09T00:10:35.779Z,87.71
2024-05-09T00:13:05.302Z,87.48
2024-05-09T00:15:33.397Z,87.56
2024-05-09T00:18:00.184Z,87.42
2024-05-09T00:20:35.111Z,87.32
2024-05-09T00:23:06.924Z,86.97
2024-05-09T00:25:33.927Z,87.23
2024-05-09T00:28:00.626Z,87.82
2024-05-09T00:30:33.675Z,87.86
2024-05-09T00:33:03.176Z,87.80
2024-05-09T00:35:30.378Z,87.84
2024-05-09T00:37:57.026Z,87.63
2024-05-09T00:40:34.749Z,87.68
2024-05-09T00:43:09.798Z,87.68
2024-05-09T00:45:36.613Z,87.29
2024-05-09T00:48:07.097Z,87.92
2024-05-09T00:50:37.824Z,87.69
2024-05-09T00:53:06.706Z,88.13
2024-05-09T00:55:35.847Z,88.00
2024-05-09T00:58:05.024Z,87.89
2024-05-09T01:00:38.434Z,87.34
2024-05-09T01:03:08.439Z,87.30
2024-05-09T01:05:39.027Z,87.57
2024-05-09T01:08:06.591Z,87.35
2024-05-09T01:10:35.154Z,87.60
2024-05-09T01:13:06.723Z,88.33
2024-05-09T01:15:34.501Z,88.06
2024-05-09T01:18:05.495Z,88.18
2024-05-09T01:20:40.889Z,88.19
2024-05-09T01:23:11.199Z,88.42
2024-05-09T01:25:38.214Z,88.30
2024-05-09T01:28:05.429Z,88.77
2024-05-09T01:30:35.470Z,88.97
2024-05-09T01:33:09.023Z,88.83
2024-05-09T01:35:37.718Z,88.46
2024-05-09T01:38:04.821Z,88.15
2024-05-09T01:40:37.493Z,88.61
2024-05-09T01:43:07.532Z,88.53
2024-05-09T01:45:34.266Z,88.36
2024-05-09T01:48:01.462Z,88.87
2024-05-09T01:50:37.929Z,89.02
2024-05-09T01:53:09.342Z,88.44
2024-05-09T01:55:36.235Z,89.30
2024-05-09T01:58:02.758Z,88.87
2024-05-09T02:00:38.165Z,89.04
2024-05-09T02:03:10.175Z,88.88
2024-05-09T02:05:37.766Z,88.60
2024-05-09T02:08:05.523Z,88.63
2024-05-09T02:10:33.267Z,88.79
2024-05-09T02:13:00.324Z,88.73
2024-05-09T02:15:26.903Z,88.31
2024-05-09T02:17:53.661Z,88.20
2024-05-09T02:20:30.342Z,88.45
2024-05-09T02:23:04.604Z,88.70
2024-05-09T02:25:32.319Z,88.93
2024-05-09T02:27:59.081Z,88.50
2024-05-09T02:30:35.677Z,88.91
2024-05-09T02:33:07.138Z,88.54
2024-05-09T02:35:34.089Z,88.47
2024-05-09T02:38:00.848Z,88.58
2024-05-09T02:40:35.702Z,88.60
2024-05-09T02:43:06.725Z,88.29
2024-05-09T02:45:33.640Z,88.91
2024-05-09T02:48:00.794Z,88.59
2024-05-09T02:50:34.510Z,88.51
2024-05-09T02:53:05.664Z,88.05
2024-05-09T02:55:32.907Z,88.14
2024-05-09T02:57:59.627Z,88.02
2024-05-09T03:00:34.806Z,88.26
2024-05-09T03:03:08.482Z,88.46
2024-05-09T03:05:36.481Z,88.26
2024-05-09T03:08:06.035Z,88.63
2024-05-09T03:10:36.326Z,88.78
2024-05-09T03:13:09.191Z,88.94
2024-05-09T03:15:36.032Z,89.08
2024-05-09T03:18:03.342Z,88.69
2024-05-09T03:20:34.331Z,88.88
2024-05-09T03:23:03.084Z,89.07
2024-05-09T03:25:29.808Z,89.17
2024-05-09T03:27:59.328Z,89.12
2024-05-09T03:30:38.430Z,89.42
2024-05-09T03:33:13.815Z,89.18
2024-05-09T03:35:41.759Z,88.93
2024-05-09T03:38:08.606Z,88.70
2024-05-09T03:40:35.338Z,88.79
2024-05-09T03:43:01.943Z,88.96
2024-05-09T03:45:28.520Z,89.12
2024-05-09T03:47:55.357Z,88.86
2024-05-09T03:50:29.692Z,89.12
2024-05-09T03:53:01.178Z,88.72
2024-05-09T03:55:29.232Z,89.01
2024-05-09T03:57:56.022Z,88.87
2024-05-09T04:00:31.096Z,88.87
2024-05-09T04:03:05.906Z,89.15
2024-05-09T04:05:34.442Z,88.90
2024-05-09T04:08:05.200Z,89.07
2024-05-09T04:10:39.374Z,89.25
2024-05-09T04:13:06.260Z,89.16
2024-05-09T04:15:40.551Z,89.53
2024-05-09T04:18:07.424Z,89.34
2024-05-09T04:20:38.857Z,89.67
2024-05-09T04:23:10.664Z,89.56
2024-05-09T04:25:37.846Z,89.61
2024-05-09T04:28:05.172Z,89.66
2024-05-09T04:30:38.006Z,89.38
2024-05-09T04:33:09.498Z,89.54
2024-05-09T04:35:38.409Z,89.48
2024-05-09T04:38:05.740Z,89.36
2024-05-09T04:40:37.173Z,89.32
2024-05-09T04:43:15.006Z,89.70
2024-05-09T04:45:41.905Z,89.83
2024-05-09T04:48:09.043Z,89.94
2024-05-09T04:50:38.759Z,89.82
2024-05-09T04:53:10.651Z,89.72
2024-05-09T04:55:38.470Z,89.87
2024-05-09T04:58:08.693Z,90.30
2024-05-09T05:00:37.671Z,89.94
2024-05-09T05:03:07.613Z,90.45
2024-05-09T05:05:40.189Z,90.39
2024-05-09T05:08:14.808Z,90.52
2024-05-09T05:10:42.770Z,90.51
2024-05-09T05:13:17.179Z,90.58
2024-05-09T05:15:46.034Z,90.75
2024-05-09T05:18:12.815Z,91.27
2024-05-09T05:20:39.510Z,91.50
2024-05-09T05:23:16.090Z,92.16
2024-05-09T05:25:43.020Z,92.27
2024-05-09T05:28:10.693Z,92.92
2024-05-09T05:30:38.236Z,93.04
2024-05-09T05:33:06.092Z,93.58
2024-05-09T05:35:33.192Z,93.30
2024-05-09T05:38:00.292Z,93.43
2024-05-09T05:40:33.373Z,93.67
2024-05-09T05:43:10.788Z,94.07
2024-05-09T05:45:38.273Z,94.12
2024-05-09T05:48:06.631Z,94.47
2024-05-09T05:50:37.150Z,95.22
2024-05-09T05:53:09.341Z,95.51
2024-05-09T05:55:37.627Z,95.63
2024-05-09T05:58:04.909Z,95.58
2024-05-09T06:03:01.483Z,96.09
2024-05-09T06:05:28.713Z,96.82
2024-05-09T06:07:55.400Z,96.70
2024-05-09T06:10:26.283Z,96.77
2024-05-09T06:13:01.381Z,96.80
2024-05-09T06:15:27.975Z,96.64
2024-05-09T06:17:54.729Z,97.08
2024-05-09T06:20:31.234Z,97.15
2024-05-09T06:23:03.181Z,97.37
2024-05-09T06:25:29.933Z,97.28
2024-05-09T06:27:56.773Z,96.79
2024-05-09T06:30:30.380Z,97.08
2024-05-09T06:33:05.339Z,96.82
2024-05-09T06:35:32.555Z,96.91
2024-05-09T06:37:59.332Z,96.41
2024-05-09T06:40:34.373Z,96.53
2024-05-09T06:43:04.869Z,95.60
2024-05-09T06:45:31.400Z,95.51
2024-05-09T06:47:58.145Z,94.88
2024-05-09T06:50:28.503Z,94.25
2024-05-09T06:53:01.876Z,94.67
2024-05-09T06:55:28.493Z,94.89
2024-05-09T06:57:55.124Z,94.60
2024-05-09T07:00:27.740Z,95.08
2024-05-09T07:03:05.767Z,94.44
2024-05-09T07:05:33.555Z,94.38
2024-05-09T07:08:00.240Z,93.80
2024-05-09T07:10:32.881Z,92.82
2024-05-09T07:13:01.917Z,92.09
2024-05-09T07:15:28.507Z,91.58
2024-05-09T07:17:55.486Z,90.17
2024-05-09T07:20:31.744Z,89.70
2024-05-09T07:23:02.854Z,89.27
2024-05-09T07:25:32.521Z,89.00
2024-05-09T07:27:59.086Z,89.08
2024-05-09T07:33:09.061Z,88.99
2024-05-09T07:35:35.846Z,89.27
2024-05-09T07:38:02.663Z,89.40
2024-05-09T07:40:35.745Z,88.54
2024-05-09T07:43:07.582Z,87.71
2024-05-09T07:52:23.779Z,85.97
2024-05-09T07:53:38.765Z,85.99
2024-05-09T07:56:09.088Z,85.94
2024-05-09T07:58:36.645Z,84.83
2024-05-09T08:01:03.447Z,84.20
2024-05-09T08:03:30.570Z,84.04
2024-05-09T08:05:57.202Z,82.81
2024-05-09T08:08:23.749Z,82.34
2024-05-09T08:10:51.218Z,82.54
2024-05-09T08:13:17.996Z,82.50
2024-05-09T08:15:44.744Z,81.64
2024-05-09T08:18:11.952Z,81.42
2024-05-09T08:20:39.919Z,81.57
2024-05-09T08:23:06.918Z,81.04
2024-05-09T08:25:33.604Z,80.48
2024-05-09T08:28:00.269Z,80.17
2024-05-09T08:30:33.436Z,78.32
2024-05-09T08:33:04.640Z,78.73
2024-05-09T08:35:32.260Z,78.68
2024-05-09T08:37:59.192Z,78.16
2024-05-09T08:40:33.394Z,76.98
2024-05-09T08:43:06.686Z,77.86
2024-05-09T08:45:35.530Z,77.47
2024-05-09T08:48:05.888Z,76.57
2024-05-09T08:50:38.751Z,78.19
2024-05-09T08:53:07.664Z,76.85
2024-05-09T08:55:35.458Z,78.01
2024-05-09T08:58:04.188Z,76.09
2024-05-09T09:00:36.884Z,75.58
2024-05-09T09:03:08.980Z,75.07
2024-05-09T09:05:38.706Z,74.34
2024-05-09T09:08:07.812Z,74.36
2024-05-09T09:10:35.604Z,73.64
2024-05-09T09:13:04.463Z,75.23
2024-05-09T09:15:31.598Z,73.42
2024-05-09T09:18:00.221Z,73.35
2024-05-09T09:20:34.177Z,72.12
2024-05-09T09:23:04.106Z,71.23
2024-05-09T09:25:30.893Z,71.52
2024-05-09T09:28:00.766Z,72.67
2024-05-09T09:30:35.376Z,72.43
2024-05-09T09:33:05.504Z,72.12
2024-05-09T09:35:32.700Z,71.97
2024-05-09T09:38:03.083Z,71.92
2024-05-09T09:40:42.906Z,71.92
2024-05-09T09:43:22.119Z,71.68
2024-05-09T09:45:53.396Z,72.65
2024-05-09T09:48:22.780Z,71.79
2024-05-09T09:50:54.199Z,70.37
2024-05-09T09:53:23.116Z,71.69
2024-05-09T09:55:51.122Z,70.35
2024-05-09T09:58:18.217Z,71.25
2024-05-09T10:00:46.970Z,68.83
2024-05-09T10:03:13.988Z,69.99
2024-05-09T10:05:44.025Z,70.23
2024-05-09T10:08:13.623Z,69.07
2024-05-09T10:10:46.752Z,69.34
2024-05-09T10:13:13.768Z,69.64
2024-05-09T10:15:48.572Z,69.17
2024-05-09T10:18:15.841Z,69.23
2024-05-09T10:20:46.498Z,67.98
2024-05-09T10:23:27.017Z,66.93
2024-05-09T10:26:00.606Z,64.60
2024-05-09T10:28:39.233Z,63.90
2024-05-09T10:31:13.882Z,61.40
2024-05-09T10:33:52.409Z,59.08
2024-05-09T10:36:21.843Z,57.98
2024-05-09T10:38:51.000Z,55.94
2024-05-09T10:41:18.321Z,56.42
2024-05-09T10:43:44.992Z,56.88
2024-05-09T10:46:12.377Z,58.18
2024-05-09T10:48:41.596Z,54.60
2024-05-09T10:51:08.660Z,55.11
2024-05-09T10:53:45.724Z,55.69
2024-05-09T10:56:15.877Z,55.48
2024-05-09T10:58:42.449Z,56.24
2024-05-09T11:01:10.416Z,53.54
2024-05-09T11:03:38.271Z,55.09
2024-05-09T11:06:06.408Z,54.81
2024-05-09T11:08:34.052Z,55.68
2024-05-09T11:11:02.924Z,52.61
2024-05-09T11:13:31.025Z,52.82
2024-05-09T11:15:58.415Z,53.45
2024-05-09T11:18:27.911Z,52.71
2024-05-09T11:20:57.338Z,51.02
2024-05-09T11:23:26.549Z,53.58
2024-05-09T11:25:58.279Z,52.04
2024-05-09T11:28:27.211Z,52.57
2024-05-09T11:31:08.644Z,52.76
2024-05-09T11:33:40.265Z,52.67
2024-05-09T11:36:08.129Z,55.15
2024-05-09T11:38:35.034Z,53.19
2024-05-09T11:41:08.481Z,55.19
2024-05-09T11:43:35.186Z,53.74
2024-05-09T11:46:03.433Z,53.85
2024-05-09T11:48:31.398Z,54.68
2024-05-09T11:50:58.392Z,53.59
2024-05-09T11:53:24.934Z,53.79
2024-05-09T11:55:51.530Z,54.66
2024-05-09T11:58:19.227Z,56.01
2024-05-09T12:00:46.964Z,54.12
2024-05-09T12:03:14.009Z,54.87
2024-05-09T12:05:41.133Z,54.43
2024-05-09T12:08:07.991Z,54.54
2024-05-09T12:10:36.244Z,54.33
2024-05-09T12:13:05.665Z,54.94
2024-05-09T12:15:36.052Z,55.02
2024-05-09T12:18:04.263Z,55.56
2024-05-09T12:20:36.851Z,56.41
2024-05-09T12:23:05.964Z,56.92
2024-05-09T12:25:32.576Z,57.16
2024-05-09T12:27:59.542Z,56.53
2024-05-09T12:30:35.318Z,56.33
2024-05-09T12:33:05.969Z,57.49
2024-05-09T12:35:32.781Z,57.16
2024-05-09T12:37:59.489Z,57.02
2024-05-09T12:40:34.588Z,57.38
2024-05-09T12:43:04.901Z,56.86
2024-05-09T12:45:32.160Z,58.22
2024-05-09T12:47:59.068Z,56.50
2024-05-09T12:50:32.259Z,57.99
2024-05-09T12:53:01.321Z,55.65
2024-05-09T12:55:30.178Z,56.02
2024-05-09T12:58:00.855Z,56.03
2024-05-09T13:00:31.769Z,55.50
2024-05-09T13:03:01.221Z,56.83
2024-05-09T13:05:28.580Z,57.05
2024-05-09T13:07:56.667Z,55.59
2024-05-09T13:10:30.749Z,55.31
2024-05-09T13:12:59.991Z,56.86
2024-05-09T13:15:27.072Z,58.22
2024-05-09T13:17:54.826Z,57.56
2024-05-09T13:20:29.505Z,56.43
2024-05-09T13:23:01.965Z,56.25
2024-05-09T13:25:28.718Z,56.12
2024-05-09T13:27:56.745Z,56.19
2024-05-09T13:30:29.853Z,55.68
2024-05-09T13:33:06.563Z,56.07
2024-05-09T13:35:35.352Z,56.61
2024-05-09T13:38:02.726Z,56.12
2024-05-09T13:40:33.824Z,56.22
2024-05-09T13:43:03.149Z,57.36
2024-05-09T13:45:30.071Z,56.33
2024-05-09T13:47:57.092Z,56.25
2024-05-09T13:50:31.594Z,58.34
2024-05-09T13:53:02.282Z,57.30
2024-05-09T13:55:28.928Z,57.84
2024-05-09T13:57:55.996Z,58.16
2024-05-09T14:00:37.245Z,57.49
2024-05-09T14:03:09.704Z,58.67
2024-05-09T14:05:36.671Z,57.91
2024-05-09T14:08:03.807Z,57.97
2024-05-09T14:10:31.964Z,57.91
2024-05-09T14:12:59.757Z,59.32
2024-05-09T14:15:26.502Z,59.28
2024-05-09T14:17:59.288Z,59.33
2024-05-09T14:20:34.656Z,58.62
2024-05-09T14:23:01.295Z,57.76
2024-05-09T14:25:36.597Z,58.45
2024-05-09T14:28:05.740Z,58.70
2024-05-09T14:30:38.774Z,58.43
2024-05-09T14:33:07.470Z,58.73
2024-05-09T14:35:38.920Z,58.74
2024-05-09T14:38:09.329Z,58.82
2024-05-09T14:40:41.861Z,57.66
2024-05-09T14:43:11.900Z,59.09
2024-05-09T14:45:38.898Z,59.07
2024-05-09T14:48:06.971Z,58.99
2024-05-09T14:50:37.475Z,59.42
2024-05-09T14:53:07.448Z,58.59
2024-05-09T14:55:42.631Z,59.72
2024-05-09T14:58:10.861Z,58.99
2024-05-09T15:00:42.806Z,58.45
2024-05-09T15:03:13.047Z,56.92
2024-05-09T15:05:40.451Z,56.78
2024-05-09T15:08:08.547Z,55.77
2024-05-09T15:10:36.812Z,56.73
2024-05-09T15:13:05.113Z,57.08
2024-05-09T15:15:34.521Z,57.83
2024-05-09T15:18:01.371Z,57.76
2024-05-09T15:20:34.461Z,57.58
2024-05-09T15:23:03.809Z,58.08
2024-05-09T15:25:30.727Z,58.17
2024-05-09T15:27:57.851Z,57.90
2024-05-09T15:30:30.668Z,57.12
2024-05-09T15:33:00.352Z,57.89
2024-05-09T15:35:27.307Z,59.86
2024-05-09T15:37:54.076Z,59.32
2024-05-09T15:40:30.579Z,59.80
2024-05-09T15:43:04.417Z,58.31
2024-05-09T15:45:34.390Z,59.41
2024-05-09T15:48:02.394Z,60.34
2024-05-09T15:50:36.766Z,60.21
2024-05-09T15:53:08.100Z,61.07
2024-05-09T15:55:35.711Z,61.03
2024-05-09T15:58:03.420Z,58.96
2024-05-09T16:00:37.575Z,57.34
2024-05-09T16:03:08.313Z,57.91
2024-05-09T16:05:35.531Z,58.14
2024-05-09T16:08:06.493Z,56.60
2024-05-09T16:10:34.778Z,56.16
2024-05-09T16:13:03.495Z,56.44
2024-05-09T16:15:30.933Z,56.95
2024-05-09T16:17:57.748Z,56.13
2024-05-09T16:20:34.302Z,55.16
2024-05-09T16:23:06.450Z,56.86
2024-05-09T16:25:33.078Z,56.24
2024-05-09T16:28:00.346Z,56.02
2024-05-09T16:30:34.061Z,56.19
2024-05-09T16:33:04.432Z,56.58
2024-05-09T16:35:31.865Z,56.58
2024-05-09T16:37:58.616Z,55.35
2024-05-09T16:40:34.325Z,54.79
2024-05-09T16:43:06.344Z,54.94
2024-05-09T16:45:33.312Z,55.00
2024-05-09T16:48:00.716Z,54.49
2024-05-09T16:50:32.563Z,55.91
2024-05-09T16:53:01.976Z,55.44
2024-05-09T16:55:28.802Z,55.68
2024-05-09T16:57:55.617Z,56.36
2024-05-09T17:00:31.589Z,55.52
2024-05-09T17:03:07.447Z,55.32
2024-05-09T17:05:35.263Z,55.71
2024-05-09T17:08:02.715Z,56.63
2024-05-09T17:10:33.132Z,55.60
2024-05-09T17:13:02.576Z,56.15
2024-05-09T17:15:29.720Z,55.95
2024-05-09T17:17:56.546Z,55.62
2024-05-09T17:20:31.235Z,56.06
2024-05-09T17:23:02.297Z,55.95
2024-05-09T17:25:29.236Z,55.35
2024-05-09T17:27:56.103Z,55.60
2024-05-09T17:30:29.135Z,56.19
2024-05-09T17:33:02.127Z,55.86
2024-05-09T17:35:29.000Z,55.67
2024-05-09T17:37:55.945Z,56.00
2024-05-09T17:40:30.930Z,56.13
2024-05-09T17:43:04.051Z,56.19
2024-05-09T17:45:31.614Z,55.88
2024-05-09T17:47:58.809Z,57.17
2024-05-09T17:50:31.674Z,57.23
2024-05-09T17:53:02.580Z,57.50
2024-05-09T17:55:31.572Z,57.96
2024-05-09T17:57:58.407Z,57.14
2024-05-09T18:00:36.382Z,58.14
2024-05-09T18:03:07.292Z,58.49
2024-05-09T18:05:35.988Z,59.03
2024-05-09T18:08:03.475Z,59.56
2024-05-09T18:10:36.023Z,58.92
2024-05-09T18:13:06.262Z,59.48
2024-05-09T18:15:33.432Z,60.07
2024-05-09T18:18:00.674Z,60.15
2024-05-09T18:20:37.374Z,61.01
2024-05-09T18:23:10.143Z,61.16
2024-05-09T18:25:36.754Z,60.94
2024-05-09T18:28:03.726Z,61.39
2024-05-09T18:30:34.996Z,62.54
2024-05-09T18:33:04.919Z,62.70
2024-05-09T18:35:32.589Z,62.74
2024-05-09T18:37:59.421Z,63.32
2024-05-09T18:40:33.445Z,63.26
2024-05-09T18:43:05.172Z,63.38
2024-05-09T18:45:32.933Z,64.20
2024-05-09T18:48:00.204Z,64.59
2024-05-09T18:50:34.603Z,64.26
2024-05-09T18:53:10.191Z,64.90
2024-05-09T18:55:37.398Z,65.57
2024-05-09T18:58:04.960Z,66.02
2024-05-09T19:00:36.080Z,65.51
2024-05-09T19:03:10.771Z,66.42
2024-05-09T19:05:40.499Z,66.30
2024-05-09T19:08:07.935Z,67.16
2024-05-09T19:10:35.939Z,67.13
2024-05-09T19:13:08.162Z,67.15
2024-05-09T19:15:38.781Z,67.91
2024-05-09T19:18:06.551Z,67.64
2024-05-09T19:20:35.334Z,67.90
2024-05-09T19:23:04.035Z,68.27
2024-05-09T19:25:30.836Z,67.84
2024-05-09T19:27:57.590Z,68.06
2024-05-09T19:30:32.934Z,67.68
2024-05-09T19:33:05.738Z,69.13
2024-05-09T19:35:32.857Z,68.55
2024-05-09T19:37:59.684Z,68.97
2024-05-09T19:40:32.269Z,69.47
2024-05-09T19:43:04.754Z,69.79
2024-05-09T19:45:35.741Z,70.47
2024-05-09T19:48:03.772Z,70.53
2024-05-09T19:50:37.496Z,70.72
2024-05-09T19:53:10.105Z,70.79
2024-05-09T19:55:37.192Z,71.13
2024-05-09T19:58:05.615Z,71.36
2024-05-09T20:00:40.267Z,72.38
2024-05-09T20:03:10.067Z,72.36
2024-05-09T20:05:37.735Z,72.35
2024-05-09T20:08:05.209Z,72.27
2024-05-09T20:10:34.186Z,72.79
2024-05-09T20:13:02.745Z,73.44
2024-05-09T20:15:30.378Z,72.88
2024-05-09T20:17:57.218Z,72.82
2024-05-09T20:20:33.048Z,73.41
2024-05-09T20:23:05.666Z,73.63
2024-05-09T20:25:32.162Z,74.15
2024-05-09T20:27:59.118Z,74.33
2024-05-09T20:30:31.838Z,74.48
2024-05-09T20:33:01.738Z,74.56
2024-05-09T20:35:31.790Z,74.94
2024-05-09T20:37:58.804Z,74.96
2024-05-09T20:40:31.679Z,75.20
2024-05-09T20:43:02.039Z,75.29
2024-05-09T20:45:28.712Z,75.30
2024-05-09T20:47:57.359Z,75.82
2024-05-09T20:50:34.807Z,75.56
2024-05-09T20:53:05.556Z,75.34
2024-05-09T20:55:32.215Z,76.15
2024-05-09T20:57:58.881Z,76.21
2024-05-09T21:00:34.359Z,76.43
2024-05-09T21:03:07.109Z,76.55
2024-05-09T21:05:34.632Z,76.80
2024-05-09T21:08:01.709Z,77.32
2024-05-09T21:10:32.695Z,77.06
2024-05-09T21:13:00.731Z,77.60
2024-05-09T21:15:27.400Z,77.36
2024-05-09T21:17:53.930Z,77.66
2024-05-09T21:20:24.474Z,77.62
2024-05-09T21:22:58.260Z,77.82
2024-05-09T21:25:24.844Z,77.59
2024-05-09T21:27:51.561Z,78.49
2024-05-09T21:30:27.338Z,78.45
2024-05-09T21:33:00.048Z,78.39
2024-05-09T21:35:26.804Z,78.83
2024-05-09T21:37:53.613Z,78.88
2024-05-09T21:40:27.378Z,79.87
2024-05-09T21:43:01.203Z,79.65
2024-05-09T21:45:28.019Z,79.21
2024-05-09T21:47:54.949Z,79.33
2024-05-09T21:50:28.180Z,80.24
2024-05-09T21:53:01.966Z,79.91
2024-05-09T21:55:28.489Z,80.25
2024-05-09T21:57:56.519Z,80.30
2024-05-09T22:00:29.215Z,80.63
2024-05-09T22:03:02.464Z,80.58
2024-05-09T22:05:29.813Z,80.91
2024-05-09T22:07:56.900Z,80.78
2024-05-09T22:10:30.493Z,80.62
2024-05-09T22:13:00.622Z,81.38
2024-05-09T22:15:27.265Z,80.98
2024-05-09T22:17:55.274Z,81.42
2024-05-09T22:20:29.008Z,80.92
2024-05-09T22:23:02.660Z,81.25
2024-05-09T22:25:30.962Z,81.24
2024-05-09T22:27:58.552Z,81.62
2024-05-09T22:30:35.615Z,81.40
2024-05-09T22:33:06.531Z,81.66
2024-05-09T22:35:33.561Z,81.13
2024-05-09T22:38:00.382Z,81.84
2024-05-09T22:40:38.659Z,81.92
2024-05-09T22:43:13.619Z,82.45
2024-05-09T22:45:40.412Z,81.98
2024-05-09T22:48:08.465Z,82.80
2024-05-09T22:50:35.329Z,82.59
2024-05-09T22:53:02.085Z,82.42
2024-05-09T22:55:28.938Z,82.57
2024-05-09T22:57:55.707Z,82.61
2024-05-09T23:00:30.897Z,83.03
2024-05-09T23:03:00.513Z,83.02
2024-05-09T23:05:27.508Z,83.28
2024-05-09T23:07:54.343Z,83.22
2024-05-09T23:10:28.159Z,83.23
2024-05-09T23:13:01.607Z,83.65
2024-05-09T23:15:28.535Z,83.66
2024-05-09T23:17:55.520Z,83.99
2024-05-09T23:20:33.166Z,84.22
2024-05-09T23:23:04.796Z,84.06
2024-05-09T23:25:31.569Z,84.13
2024-05-09T23:27:58.297Z,84.14
2024-05-09T23:30:33.949Z,84.08
2024-05-09T23:33:05.670Z,84.37
2024-05-09T23:35:32.469Z,84.48
2024-05-09T23:37:59.136Z,84.60
2024-05-09T23:40:36.862Z,84.74
2024-05-09T23:43:06.581Z,84.06
2024-05-09T23:45:33.564Z,84.10
2024-05-09T23:48:00.725Z,84.11
2024-05-09T23:50:34.300Z,84.08
2024-05-09T23:53:04.762Z,84.46
2024-05-09T23:55:32.222Z,84.61
2024-05-09T23:57:59.276Z,84.90
